AGROMETEOROLOŠKI PORTAL

Vinorodna pokrajina

Temelj dobrega kmetovanja.

Pregled podatkov za lokacijo Znojile pri Krki, meteorološka postaja 37827

Pregled senzorjev na lokaciji

ID Ime Zadnja
vrednost
Datum in čas
meritve
(lokalni čas)
Tip
senzorja
2023 Omočenost lista (1,5 m) (U) 10 U 5.6.2023 04:00 A730WET
5069 Padavine (mm) 0 mm 5.6.2023 04:00 Generic 0.2 mm
2025 Relativna zračna vlaga (2 m) (%RH) 100 %RH 5.6.2023 04:00 50YA
2024 Temperatura (2 m) (°C) 15,4 °C 5.6.2023 04:00 50YA

Pregled podatkov zadnjih 24 ur

Zap.
št.
Datum in čas
(lokalni čas)
Znojile pri Krki
Omočenost
lista
(1,5
m)
Padavine Relativna
zračna
vlaga
(2
m)
Temperatura
(2
m)
1 5.6.2023 04:00 10 0 99,9 15,4
2 5.6.2023 03:30 10 0 99,9 15,3
3 5.6.2023 03:00 10 0 99,9 15,3
4 5.6.2023 02:30 10 0 99,9 15,2
5 5.6.2023 02:00 10 0 99,9 15,2
6 5.6.2023 01:30 10 0 99,9 15,3
7 5.6.2023 01:00 10 0 99,9 15,3
8 5.6.2023 00:30 10 0 99,9 15,4
9 5.6.2023 00:00 10 0 99,9 15,4
10 4.6.2023 23:30 10 0 99,9 15,5
11 4.6.2023 23:00 10 0 99,9 15,4
12 4.6.2023 22:30 10 0 99,9 15,5
13 4.6.2023 22:00 10 0 99,8 16
14 4.6.2023 21:30 10 0 99,1 16,2
15 4.6.2023 21:00 10 0 96,4 16,8
16 4.6.2023 20:30 6 0 93,3 17,5
17 4.6.2023 20:00 0 0 89,5 18,1
18 4.6.2023 19:30 0 0 85,6 18,7
19 4.6.2023 19:00 0 0 78,9 19,2
20 4.6.2023 18:30 0 0 77 19,4
21 4.6.2023 18:00 0 0 82,1 19,6
22 4.6.2023 17:30 0 0 88,9 18,8
23 4.6.2023 17:00 1 0 91,6 18,2
24 4.6.2023 16:30 8 0 94,2 17,8
25 4.6.2023 16:00 8 0,2 94 17,5
26 4.6.2023 15:30 9 0,4 90,9 17,3
27 4.6.2023 15:00 9 0,6 91,2 17,3
28 4.6.2023 14:30 7 0,2 91,3 17,2
29 4.6.2023 14:00 4 0,2 92,2 16,4
30 4.6.2023 13:30 8 2,4 89 15,9
31 4.6.2023 13:00 10 1,2 91,9 18,2
32 4.6.2023 12:30 4 0 75,9 20,7
33 4.6.2023 12:00 0 0 67,5 21,6
34 4.6.2023 11:30 0 0 66,9 21,7
35 4.6.2023 11:00 0 0 67,4 21,7
36 4.6.2023 10:30 0 0 68,4 21,1
37 4.6.2023 10:00 0 0 70,6 20,5
38 4.6.2023 09:30 0 0 73,1 19,6
39 4.6.2023 09:00 0 0 77,8 18,5
40 4.6.2023 08:30 0 0 88,1 16,9
41 4.6.2023 08:00 10 0 94,1 15,5
42 4.6.2023 07:30 10 0 99,5 14,2
43 4.6.2023 07:00 10 0 99,9 13,3
44 4.6.2023 06:30 10 0 99,9 12,6
45 4.6.2023 06:00 10 0 99,9 12,2
46 4.6.2023 05:30 10 0 99,9 12,6